sensor_id;sensor_type;location;lat;lon;timestamp;pressure;altitude;pressure_sealevel;temperature;humidity
16664;BME280;8445;51.270;9.434;2023-04-03T00:00:19;100705.63;;;3.11;57.08
16664;BME280;8445;51.270;9.434;2023-04-03T00:02:44;100704.22;;;2.96;56.89
16664;BME280;8445;51.270;9.434;2023-04-03T00:05:10;100708.91;;;2.81;56.86
16664;BME280;8445;51.270;9.434;2023-04-03T00:07:35;100710.91;;;2.70;57.18
16664;BME280;8445;51.270;9.434;2023-04-03T00:10:01;100714.72;;;2.54;57.44
16664;BME280;8445;51.270;9.434;2023-04-03T00:12:26;100724.41;;;2.50;57.08
16664;BME280;8445;51.270;9.434;2023-04-03T00:14:52;100719.44;;;2.36;56.69
16664;BME280;8445;51.270;9.434;2023-04-03T00:17:17;100724.81;;;2.28;57.10
16664;BME280;8445;51.270;9.434;2023-04-03T00:19:42;100720.72;;;2.16;56.95
16664;BME280;8445;51.270;9.434;2023-04-03T00:22:08;100727.88;;;2.05;57.53
16664;BME280;8445;51.270;9.434;2023-04-03T00:24:33;100728.25;;;1.85;57.75
16664;BME280;8445;51.270;9.434;2023-04-03T00:26:59;100729.09;;;1.85;57.16
16664;BME280;8445;51.270;9.434;2023-04-03T00:29:24;100732.06;;;1.67;57.40
16664;BME280;8445;51.270;9.434;2023-04-03T00:31:50;100732.91;;;1.67;57.49
16664;BME280;8445;51.270;9.434;2023-04-03T00:34:15;100733.09;;;1.56;58.02
16664;BME280;8445;51.270;9.434;2023-04-03T00:36:41;100732.16;;;1.59;57.58
16664;BME280;8445;51.270;9.434;2023-04-03T00:39:06;100738.41;;;1.50;57.10
16664;BME280;8445;51.270;9.434;2023-04-03T00:41:32;100727.19;;;1.45;57.52
16664;BME280;8445;51.270;9.434;2023-04-03T00:43:57;100736.03;;;1.35;57.06
16664;BME280;8445;51.270;9.434;2023-04-03T00:46:23;100732.59;;;1.32;57.72
16664;BME280;8445;51.270;9.434;2023-04-03T00:48:49;100733.66;;;1.21;57.53
16664;BME280;8445;51.270;9.434;2023-04-03T00:51:22;100738.84;;;1.22;57.49
16664;BME280;8445;51.270;9.434;2023-04-03T00:53:51;100740.69;;;1.17;57.70
16664;BME280;8445;51.270;9.434;2023-04-03T00:56:21;100746.81;;;1.13;57.79
16664;BME280;8445;51.270;9.434;2023-04-03T00:58:53;100744.22;;;1.11;59.18
16664;BME280;8445;51.270;9.434;2023-04-03T01:01:24;100755.41;;;1.18;58.94
16664;BME280;8445;51.270;9.434;2023-04-03T01:03:50;100745.06;;;1.15;59.24
16664;BME280;8445;51.270;9.434;2023-04-03T01:06:18;100741.69;;;1.07;59.28
16664;BME280;8445;51.270;9.434;2023-04-03T01:08:48;100743.47;;;1.03;59.14
16664;BME280;8445;51.270;9.434;2023-04-03T01:11:15;100743.56;;;0.97;59.24
16664;BME280;8445;51.270;9.434;2023-04-03T01:13:41;100745.44;;;0.87;60.51
16664;BME280;8445;51.270;9.434;2023-04-03T01:16:07;100739.44;;;0.82;61.22
16664;BME280;8445;51.270;9.434;2023-04-03T01:18:36;100739.47;;;0.79;61.48
16664;BME280;8445;51.270;9.434;2023-04-03T01:26:11;100739.63;;;0.68;61.01
16664;BME280;8445;51.270;9.434;2023-04-03T01:28:37;100747.59;;;0.57;62.12
16664;BME280;8445;51.270;9.434;2023-04-03T01:31:27;100739.78;;;0.55;64.87
16664;BME280;8445;51.270;9.434;2023-04-03T01:33:55;100735.38;;;0.61;62.44
16664;BME280;8445;51.270;9.434;2023-04-03T01:36:26;100744.13;;;0.55;63.78
16664;BME280;8445;51.270;9.434;2023-04-03T01:38:54;100749.38;;;0.52;62.78
16664;BME280;8445;51.270;9.434;2023-04-03T01:41:21;100756.34;;;0.48;62.14
16664;BME280;8445;51.270;9.434;2023-04-03T01:43:48;100760.78;;;0.41;62.18
16664;BME280;8445;51.270;9.434;2023-04-03T01:46:16;100760.84;;;0.35;63.06
16664;BME280;8445;51.270;9.434;2023-04-03T01:48:42;100761.72;;;0.34;63.60
16664;BME280;8445;51.270;9.434;2023-04-03T01:51:08;100760.88;;;0.32;62.97
16664;BME280;8445;51.270;9.434;2023-04-03T01:53:34;100764.38;;;0.29;62.92
16664;BME280;8445;51.270;9.434;2023-04-03T01:56:00;100766.16;;;0.27;62.44
16664;BME280;8445;51.270;9.434;2023-04-03T01:58:25;100760.97;;;0.23;61.90
16664;BME280;8445;51.270;9.434;2023-04-03T02:00:53;100773.22;;;0.14;63.47
16664;BME280;8445;51.270;9.434;2023-04-03T02:03:19;100772.38;;;0.12;62.80
16664;BME280;8445;51.270;9.434;2023-04-03T02:05:45;100759.38;;;0.11;63.43
16664;BME280;8445;51.270;9.434;2023-04-03T02:08:11;100777.59;;;0.09;63.24
16664;BME280;8445;51.270;9.434;2023-04-03T02:10:37;100778.50;;;0.05;62.95
16664;BME280;8445;51.270;9.434;2023-04-03T02:13:02;100769.00;;;0.01;63.14
16664;BME280;8445;51.270;9.434;2023-04-03T02:15:28;100771.66;;;-0.04;62.60
16664;BME280;8445;51.270;9.434;2023-04-03T02:17:53;100763.94;;;-0.11;62.72
16664;BME280;8445;51.270;9.434;2023-04-03T02:20:20;100768.34;;;-0.20;63.47
16664;BME280;8445;51.270;9.434;2023-04-03T02:22:46;100767.47;;;-0.19;65.07
16664;BME280;8445;51.270;9.434;2023-04-03T02:25:11;100762.28;;;-0.19;64.86
16664;BME280;8445;51.270;9.434;2023-04-03T02:27:38;100764.00;;;-0.18;64.44
16664;BME280;8445;51.270;9.434;2023-04-03T02:30:05;100767.47;;;-0.19;64.42
16664;BME280;8445;51.270;9.434;2023-04-03T02:32:31;100769.19;;;-0.18;64.20
16664;BME280;8445;51.270;9.434;2023-04-03T02:34:56;100776.16;;;-0.21;64.02
16664;BME280;8445;51.270;9.434;2023-04-03T02:37:22;100778.84;;;-0.31;65.62
16664;BME280;8445;51.270;9.434;2023-04-03T02:39:48;100767.53;;;-0.25;65.17
16664;BME280;8445;51.270;9.434;2023-04-03T02:42:14;100776.22;;;-0.29;64.88
16664;BME280;8445;51.270;9.434;2023-04-03T02:44:39;100781.47;;;-0.35;64.38
16664;BME280;8445;51.270;9.434;2023-04-03T02:47:05;100779.78;;;-0.39;64.91
16664;BME280;8445;51.270;9.434;2023-04-03T02:49:32;100783.25;;;-0.40;65.26
16664;BME280;8445;51.270;9.434;2023-04-03T02:51:57;100783.25;;;-0.40;64.87
16664;BME280;8445;51.270;9.434;2023-04-03T02:54:23;100785.06;;;-0.52;65.54
16664;BME280;8445;51.270;9.434;2023-04-03T02:56:52;100792.00;;;-0.54;65.60
16664;BME280;8445;51.270;9.434;2023-04-03T02:59:18;100792.00;;;-0.52;65.89
16664;BME280;8445;51.270;9.434;2023-04-03T03:01:43;100792.03;;;-0.57;65.99
16664;BME280;8445;51.270;9.434;2023-04-03T03:04:09;100782.50;;;-0.53;65.15
16664;BME280;8445;51.270;9.434;2023-04-03T03:06:35;100792.94;;;-0.63;66.00
16664;BME280;8445;51.270;9.434;2023-04-03T03:09:00;100790.41;;;-0.67;65.14
16664;BME280;8445;51.270;9.434;2023-04-03T03:11:25;100795.59;;;-0.67;65.40
16664;BME280;8445;51.270;9.434;2023-04-03T03:13:52;100788.66;;;-0.68;65.88
16664;BME280;8445;51.270;9.434;2023-04-03T03:16:17;100780.03;;;-0.70;65.49
16664;BME280;8445;51.270;9.434;2023-04-03T03:18:43;100790.41;;;-0.70;64.44
16664;BME280;8445;51.270;9.434;2023-04-03T03:21:09;100795.66;;;-0.80;65.65
16664;BME280;8445;51.270;9.434;2023-04-03T03:23:35;100799.97;;;-0.77;64.94
16664;BME280;8445;51.270;9.434;2023-04-03T03:26:03;100791.34;;;-0.85;65.71
16664;BME280;8445;51.270;9.434;2023-04-03T03:28:30;100787.06;;;-0.88;65.15
16664;BME280;8445;51.270;9.434;2023-04-03T03:30:57;100788.78;;;-0.87;64.69
16664;BME280;8445;51.270;9.434;2023-04-03T03:33:23;100790.53;;;-0.92;65.07
16664;BME280;8445;51.270;9.434;2023-04-03T03:35:51;100789.72;;;-0.96;64.52
16664;BME280;8445;51.270;9.434;2023-04-03T03:38:17;100786.31;;;-1.10;64.79
16664;BME280;8445;51.270;9.434;2023-04-03T03:40:47;100795.00;;;-1.21;65.63
16664;BME280;8445;51.270;9.434;2023-04-03T03:43:12;100791.53;;;-1.20;65.61
16664;BME280;8445;51.270;9.434;2023-04-03T03:45:38;100791.56;;;-1.23;66.03
16664;BME280;8445;51.270;9.434;2023-04-03T03:48:03;100783.78;;;-1.24;64.92
16664;BME280;8445;51.270;9.434;2023-04-03T03:50:29;100793.31;;;-1.31;65.82
16664;BME280;8445;51.270;9.434;2023-04-03T03:52:55;100796.78;;;-1.29;67.16
16664;BME280;8445;51.270;9.434;2023-04-03T03:55:20;100799.38;;;-1.24;66.11
16664;BME280;8445;51.270;9.434;2023-04-03T03:57:50;100788.97;;;-1.23;65.46
16664;BME280;8445;51.270;9.434;2023-04-03T04:00:16;100797.66;;;-1.28;67.12
16664;BME280;8445;51.270;9.434;2023-04-03T04:02:47;100797.66;;;-1.28;66.85
16664;BME280;8445;51.270;9.434;2023-04-03T04:05:16;100801.97;;;-1.26;66.75
16664;BME280;8445;51.270;9.434;2023-04-03T04:07:41;100801.09;;;-1.26;65.92
16664;BME280;8445;51.270;9.434;2023-04-03T04:10:07;100810.63;;;-1.27;64.84
16664;BME280;8445;51.270;9.434;2023-04-03T04:12:33;100810.66;;;-1.39;67.17
16664;BME280;8445;51.270;9.434;2023-04-03T04:15:01;100800.28;;;-1.35;65.97
16664;BME280;8445;51.270;9.434;2023-04-03T04:17:28;100808.06;;;-1.38;66.67
16664;BME280;8445;51.270;9.434;2023-04-03T04:19:53;100806.34;;;-1.39;66.23
16664;BME280;8445;51.270;9.434;2023-04-03T04:22:19;100813.25;;;-1.38;65.67
16664;BME280;8445;51.270;9.434;2023-04-03T04:24:44;100812.41;;;-1.44;66.23
16664;BME280;8445;51.270;9.434;2023-04-03T04:27:10;100823.66;;;-1.42;67.59
16664;BME280;8445;51.270;9.434;2023-04-03T04:29:35;100823.66;;;-1.41;66.75
16664;BME280;8445;51.270;9.434;2023-04-03T04:32:04;100832.31;;;-1.45;66.84
16664;BME280;8445;51.270;9.434;2023-04-03T04:34:29;100815.84;;;-1.39;67.49
16664;BME280;8445;51.270;9.434;2023-04-03T04:36:57;100823.66;;;-1.44;67.81
16664;BME280;8445;51.270;9.434;2023-04-03T04:39:23;100823.66;;;-1.44;68.71
16664;BME280;8445;51.270;9.434;2023-04-03T04:41:49;100831.44;;;-1.42;68.08
16664;BME280;8445;51.270;9.434;2023-04-03T04:44:15;100827.13;;;-1.42;68.82
16664;BME280;8445;51.270;9.434;2023-04-03T04:46:41;100834.91;;;-1.42;68.65
16664;BME280;8445;51.270;9.434;2023-04-03T04:49:07;100835.78;;;-1.46;68.75
16664;BME280;8445;51.270;9.434;2023-04-03T04:51:33;100834.03;;;-1.44;67.84
16664;BME280;8445;51.270;9.434;2023-04-03T04:53:59;100829.72;;;-1.48;68.89
16664;BME280;8445;51.270;9.434;2023-04-03T04:56:24;100829.75;;;-1.51;68.18
16664;BME280;8445;51.270;9.434;2023-04-03T04:58:52;100834.94;;;-1.51;68.73
16664;BME280;8445;51.270;9.434;2023-04-03T05:01:19;100842.72;;;-1.51;68.47
16664;BME280;8445;51.270;9.434;2023-04-03T05:03:54;100843.59;;;-1.54;68.96
16664;BME280;8445;51.270;9.434;2023-04-03T05:06:21;100844.44;;;-1.53;68.54
16664;BME280;8445;51.270;9.434;2023-04-03T05:08:47;100847.91;;;-1.51;68.29
16664;BME280;8445;51.270;9.434;2023-04-03T05:11:15;100853.09;;;-1.54;69.49
16664;BME280;8445;51.270;9.434;2023-04-03T05:13:42;100848.75;;;-1.49;67.66
16664;BME280;8445;51.270;9.434;2023-04-03T05:16:08;100859.16;;;-1.51;67.66
16664;BME280;8445;51.270;9.434;2023-04-03T05:18:33;100855.72;;;-1.53;67.53
16664;BME280;8445;51.270;9.434;2023-04-03T05:21:04;100858.28;;;-1.51;67.69
16664;BME280;8445;51.270;9.434;2023-04-03T05:23:30;100865.19;;;-1.50;67.56
16664;BME280;8445;51.270;9.434;2023-04-03T05:25:57;100857.41;;;-1.45;67.52
16664;BME280;8445;51.270;9.434;2023-04-03T05:28:24;100867.78;;;-1.44;67.68
16664;BME280;8445;51.270;9.434;2023-04-03T05:30:56;100879.88;;;-1.38;69.72
16664;BME280;8445;51.270;9.434;2023-04-03T05:33:25;100871.22;;;-1.26;68.51
16664;BME280;8445;51.270;9.434;2023-04-03T05:35:54;100872.91;;;-1.21;69.33
16664;BME280;8445;51.270;9.434;2023-04-03T05:38:24;100878.94;;;-1.11;69.28
16664;BME280;8445;51.270;9.434;2023-04-03T05:40:50;100883.22;;;-0.99;68.44
16664;BME280;8445;51.270;9.434;2023-04-03T05:43:16;100878.00;;;-0.94;68.37
16664;BME280;8445;51.270;9.434;2023-04-03T05:45:43;100881.44;;;-0.89;67.59
16664;BME280;8445;51.270;9.434;2023-04-03T05:48:08;100885.78;;;-0.91;69.13
16664;BME280;8445;51.270;9.434;2023-04-03T05:50:34;100876.22;;;-0.83;68.24
16664;BME280;8445;51.270;9.434;2023-04-03T05:53:01;100872.75;;;-0.79;67.73
16664;BME280;8445;51.270;9.434;2023-04-03T05:55:30;100878.78;;;-0.77;68.27
16664;BME280;8445;51.270;9.434;2023-04-03T05:57:55;100881.38;;;-0.70;67.61
16664;BME280;8445;51.270;9.434;2023-04-03T06:00:22;100883.09;;;-0.69;67.59
16664;BME280;8445;51.270;9.434;2023-04-03T06:02:56;100889.97;;;-0.64;68.27
16664;BME280;8445;51.270;9.434;2023-04-03T06:05:23;100895.13;;;-0.51;67.48
16664;BME280;8445;51.270;9.434;2023-04-03T06:07:49;100883.00;;;-0.52;67.75
16664;BME280;8445;51.270;9.434;2023-04-03T06:10:15;100895.09;;;-0.47;68.08
16664;BME280;8445;51.270;9.434;2023-04-03T06:12:41;100893.31;;;-0.37;67.83
16664;BME280;8445;51.270;9.434;2023-04-03T06:15:07;100892.41;;;-0.31;67.38
16664;BME280;8445;51.270;9.434;2023-04-03T06:17:33;100902.78;;;-0.28;67.08
16664;BME280;8445;51.270;9.434;2023-04-03T06:19:59;100901.00;;;-0.23;67.18
16664;BME280;8445;51.270;9.434;2023-04-03T06:22:25;100903.56;;;-0.18;67.29
16664;BME280;8445;51.270;9.434;2023-04-03T06:24:56;100907.88;;;-0.12;66.99
16664;BME280;8445;51.270;9.434;2023-04-03T06:27:21;100907.88;;;-0.09;67.29
16664;BME280;8445;51.270;9.434;2023-04-03T06:29:47;100908.66;;;-0.03;67.09
16664;BME280;8445;51.270;9.434;2023-04-03T06:32:14;100904.28;;;0.01;66.99
16664;BME280;8445;51.270;9.434;2023-04-03T06:34:40;100912.09;;;0.03;66.80
16664;BME280;8445;51.270;9.434;2023-04-03T06:37:12;100919.00;;;0.07;66.81
16664;BME280;8445;51.270;9.434;2023-04-03T06:39:39;100915.47;;;0.16;66.80
16664;BME280;8445;51.270;9.434;2023-04-03T06:42:05;100921.50;;;0.21;66.44
16664;BME280;8445;51.270;9.434;2023-04-03T06:44:37;100924.84;;;0.35;66.92
16664;BME280;8445;51.270;9.434;2023-04-03T06:47:03;100928.03;;;0.65;67.64
16664;BME280;8445;51.270;9.434;2023-04-03T06:49:28;100927.75;;;0.92;66.69
16664;BME280;8445;51.270;9.434;2023-04-03T06:51:54;100938.09;;;0.99;67.00
16664;BME280;8445;51.270;9.434;2023-04-03T06:54:20;100942.13;;;1.25;66.30
16664;BME280;8445;51.270;9.434;2023-04-03T06:56:46;100945.28;;;1.51;67.01
16664;BME280;8445;51.270;9.434;2023-04-03T06:59:12;100955.47;;;1.71;66.29
16664;BME280;8445;51.270;9.434;2023-04-03T07:01:41;100960.63;;;1.75;65.73
16664;BME280;8445;51.270;9.434;2023-04-03T07:04:07;100958.94;;;1.73;65.92
16664;BME280;8445;51.270;9.434;2023-04-03T07:06:33;100966.78;;;1.70;65.82
16664;BME280;8445;51.270;9.434;2023-04-03T07:09:00;100957.16;;;1.73;65.45
16664;BME280;8445;51.270;9.434;2023-04-03T07:11:28;100971.84;;;1.79;66.06
16664;BME280;8445;51.270;9.434;2023-04-03T07:13:54;100975.25;;;1.86;66.09
16664;BME280;8445;51.270;9.434;2023-04-03T07:16:20;100970.00;;;1.87;64.93
16664;BME280;8445;51.270;9.434;2023-04-03T07:18:46;100970.00;;;1.87;64.79
16664;BME280;8445;51.270;9.434;2023-04-03T07:21:12;100975.22;;;1.87;65.23
16664;BME280;8445;51.270;9.434;2023-04-03T07:23:38;100982.28;;;1.79;64.48
16664;BME280;8445;51.270;9.434;2023-04-03T07:26:04;100988.28;;;1.87;65.12
16664;BME280;8445;51.270;9.434;2023-04-03T07:28:30;100982.03;;;1.99;64.64
16664;BME280;8445;51.270;9.434;2023-04-03T07:31:04;100979.44;;;1.99;64.14
16664;BME280;8445;51.270;9.434;2023-04-03T07:33:31;100985.53;;;1.98;64.01
16664;BME280;8445;51.270;9.434;2023-04-03T07:35:57;100983.00;;;1.92;63.88
16664;BME280;8445;51.270;9.434;2023-04-03T07:38:23;100988.22;;;1.92;64.35
16664;BME280;8445;51.270;9.434;2023-04-03T07:40:50;100985.59;;;1.93;64.15
16664;BME280;8445;51.270;9.434;2023-04-03T07:43:18;100986.38;;;1.99;63.38
16664;BME280;8445;51.270;9.434;2023-04-03T07:45:46;100981.97;;;2.04;63.55
16664;BME280;8445;51.270;9.434;2023-04-03T07:48:13;100991.47;;;2.08;63.62
16664;BME280;8445;51.270;9.434;2023-04-03T07:50:41;100989.56;;;2.19;64.18
16664;BME280;8445;51.270;9.434;2023-04-03T07:53:09;100989.38;;;2.30;63.82
16664;BME280;8445;51.270;9.434;2023-04-03T07:55:37;100991.81;;;2.41;63.58
16664;BME280;8445;51.270;9.434;2023-04-03T07:58:12;100989.34;;;2.33;62.23
16664;BME280;8445;51.270;9.434;2023-04-03T08:00:38;100979.78;;;2.34;63.48
16664;BME280;8445;51.270;9.434;2023-04-03T08:03:04;100984.91;;;2.37;63.23
16664;BME280;8445;51.270;9.434;2023-04-03T08:05:44;100990.00;;;2.46;62.96
16664;BME280;8445;51.270;9.434;2023-04-03T08:08:14;100995.28;;;2.43;61.48
16664;BME280;8445;51.270;9.434;2023-04-03T08:10:48;100994.47;;;2.38;61.18
16664;BME280;8445;51.270;9.434;2023-04-03T08:13:13;100997.94;;;2.40;62.00
16664;BME280;8445;51.270;9.434;2023-04-03T08:15:49;100992.69;;;2.42;61.71
16664;BME280;8445;51.270;9.434;2023-04-03T08:18:17;100994.44;;;2.41;61.49
16664;BME280;8445;51.270;9.434;2023-04-03T08:20:46;100992.50;;;2.54;61.76
16664;BME280;8445;51.270;9.434;2023-04-03T08:23:14;100998.53;;;2.59;61.52
16664;BME280;8445;51.270;9.434;2023-04-03T08:25:41;100993.00;;;2.75;61.40
16664;BME280;8445;51.270;9.434;2023-04-03T08:28:10;100999.94;;;2.77;61.21
16664;BME280;8445;51.270;9.434;2023-04-03T08:30:39;100998.94;;;2.85;61.29
16664;BME280;8445;51.270;9.434;2023-04-03T08:33:07;101001.41;;;2.92;61.25
16664;BME280;8445;51.270;9.434;2023-04-03T08:35:40;100989.81;;;3.07;61.38
16664;BME280;8445;51.270;9.434;2023-04-03T08:38:08;100987.72;;;3.25;61.24
16664;BME280;8445;51.270;9.434;2023-04-03T08:40:34;100993.81;;;3.27;59.88
16664;BME280;8445;51.270;9.434;2023-04-03T08:46:14;100987.50;;;3.36;59.37
16664;BME280;8445;51.270;9.434;2023-04-03T08:48:42;100985.59;;;3.44;60.35
16664;BME280;8445;51.270;9.434;2023-04-03T08:51:16;100999.56;;;3.43;56.79
16664;BME280;8445;51.270;9.434;2023-04-03T08:54:05;100986.25;;;3.54;53.10
16664;BME280;8445;51.270;9.434;2023-04-03T08:56:34;100985.88;;;3.73;57.90
16664;BME280;8445;51.270;9.434;2023-04-03T08:59:10;100988.25;;;3.83;55.10
16664;BME280;8445;51.270;9.434;2023-04-03T09:01:41;100982.75;;;3.96;54.76
16664;BME280;8445;51.270;9.434;2023-04-03T09:04:16;100985.22;;;4.04;55.37
16664;BME280;8445;51.270;9.434;2023-04-03T09:06:45;100977.03;;;4.16;58.03
16664;BME280;8445;51.270;9.434;2023-04-03T09:09:22;100976.66;;;4.33;56.56
16664;BME280;8445;51.270;9.434;2023-04-03T09:12:21;100981.41;;;4.53;55.30
16664;BME280;8445;51.270;9.434;2023-04-03T09:15:21;100983.88;;;4.59;56.01
16664;BME280;8445;51.270;9.434;2023-04-03T09:17:56;100983.81;;;4.63;56.17
16664;BME280;8445;51.270;9.434;2023-04-03T09:23:18;100984.38;;;4.74;54.82
16664;BME280;8445;51.270;9.434;2023-04-03T09:25:45;100982.31;;;4.85;57.07
16664;BME280;8445;51.270;9.434;2023-04-03T09:28:11;100985.25;;;4.73;55.31
16664;BME280;8445;51.270;9.434;2023-04-03T09:30:40;100986.50;;;4.59;55.90
16664;BME280;8445;51.270;9.434;2023-04-03T09:33:08;100980.44;;;4.57;55.95
16664;BME280;8445;51.270;9.434;2023-04-03T09:35:36;100979.22;;;4.71;54.99
16664;BME280;8445;51.270;9.434;2023-04-03T09:40:40;100991.16;;;4.83;53.93
16664;BME280;8445;51.270;9.434;2023-04-03T09:45:48;100986.59;;;5.23;56.53
16664;BME280;8445;51.270;9.434;2023-04-03T09:56:02;100987.28;;;6.99;51.84
16664;BME280;8445;51.270;9.434;2023-04-03T09:58:38;100970.72;;;7.44;50.52
16664;BME280;8445;51.270;9.434;2023-04-03T10:01:26;100972.06;;;7.78;53.12
16664;BME280;8445;51.270;9.434;2023-04-03T10:04:16;100956.22;;;8.02;52.32
16664;BME280;8445;51.270;9.434;2023-04-03T10:12:07;100964.81;;;7.61;52.39
16664;BME280;8445;51.270;9.434;2023-04-03T10:15:38;100960.41;;;7.62;48.96
16664;BME280;8445;51.270;9.434;2023-04-03T10:18:02;100962.94;;;7.41;52.28
16664;BME280;8445;51.270;9.434;2023-04-03T10:20:44;100976.28;;;6.60;47.88
16664;BME280;8445;51.270;9.434;2023-04-03T10:23:24;100972.38;;;6.18;52.96
16664;BME280;8445;51.270;9.434;2023-04-03T10:26:32;100964.38;;;5.93;49.00
16664;BME280;8445;51.270;9.434;2023-04-03T10:32:29;100972.50;;;5.57;52.82
16664;BME280;8445;51.270;9.434;2023-04-03T10:38:27;100958.16;;;5.07;50.30
16664;BME280;8445;51.270;9.434;2023-04-03T10:41:12;100962.75;;;4.99;50.39
16664;BME280;8445;51.270;9.434;2023-04-03T10:43:53;100958.81;;;5.15;50.57
16664;BME280;8445;51.270;9.434;2023-04-03T10:46:27;100955.75;;;5.61;52.76
16664;BME280;8445;51.270;9.434;2023-04-03T10:50:15;100958.78;;;6.05;49.76
16664;BME280;8445;51.270;9.434;2023-04-03T10:52:22;100950.84;;;6.35;47.85
16664;BME280;8445;51.270;9.434;2023-04-03T10:55:30;100937.75;;;6.59;49.34
16664;BME280;8445;51.270;9.434;2023-04-03T10:57:59;100948.38;;;6.56;51.63
16664;BME280;8445;51.270;9.434;2023-04-03T11:03:00;100933.06;;;6.42;50.37
16664;BME280;8445;51.270;9.434;2023-04-03T11:11:34;100919.19;;;7.13;46.14
16664;BME280;8445;51.270;9.434;2023-04-03T11:16:47;100912.59;;;7.72;51.41
16664;BME280;8445;51.270;9.434;2023-04-03T11:19:42;100925.63;;;7.53;45.58
16664;BME280;8445;51.270;9.434;2023-04-03T11:22:36;100923.03;;;7.52;45.68
16664;BME280;8445;51.270;9.434;2023-04-03T11:27:44;100915.34;;;7.92;46.36
16664;BME280;8445;51.270;9.434;2023-04-03T11:30:24;100903.44;;;7.81;45.62
16664;BME280;8445;51.270;9.434;2023-04-03T11:35:42;100896.81;;;7.71;47.17
16664;BME280;8445;51.270;9.434;2023-04-03T11:38:17;100892.47;;;7.70;46.81
16664;BME280;8445;51.270;9.434;2023-04-03T11:40:45;100898.31;;;7.78;49.44
16664;BME280;8445;51.270;9.434;2023-04-03T11:43:22;100887.97;;;7.74;46.73
16664;BME280;8445;51.270;9.434;2023-04-03T11:45:53;100901.59;;;7.83;47.05
16664;BME280;8445;51.270;9.434;2023-04-03T11:53:40;100896.44;;;6.88;48.41
16664;BME280;8445;51.270;9.434;2023-04-03T11:59:23;100913.94;;;6.12;43.84
16664;BME280;8445;51.270;9.434;2023-04-03T12:01:51;100907.13;;;6.06;46.47
16664;BME280;8445;51.270;9.434;2023-04-03T12:04:19;100900.69;;;6.15;46.83
16664;BME280;8445;51.270;9.434;2023-04-03T12:11:57;100891.78;;;5.63;47.28
16664;BME280;8445;51.270;9.434;2023-04-03T12:14:24;100889.84;;;5.70;48.87
16664;BME280;8445;51.270;9.434;2023-04-03T12:16:54;100878.38;;;5.73;47.11
16664;BME280;8445;51.270;9.434;2023-04-03T12:19:34;100899.38;;;5.73;47.57
16664;BME280;8445;51.270;9.434;2023-04-03T12:24:54;100877.03;;;5.88;46.80
16664;BME280;8445;51.270;9.434;2023-04-03T12:27:24;100870.38;;;6.04;46.71
16664;BME280;8445;51.270;9.434;2023-04-03T12:30:05;100876.44;;;6.33;45.68
16664;BME280;8445;51.270;9.434;2023-04-03T12:32:40;100878.41;;;6.52;47.92
16664;BME280;8445;51.270;9.434;2023-04-03T12:35:31;100870.31;;;6.58;44.62
16664;BME280;8445;51.270;9.434;2023-04-03T12:48:26;100852.38;;;7.17;46.68
16664;BME280;8445;51.270;9.434;2023-04-03T12:50:52;100841.00;;;7.63;48.31
16664;BME280;8445;51.270;9.434;2023-04-03T12:53:21;100833.72;;;7.90;47.72
16664;BME280;8445;51.270;9.434;2023-04-03T12:55:58;100833.28;;;8.01;44.68
16664;BME280;8445;51.270;9.434;2023-04-03T12:58:42;100827.81;;;8.26;48.20
16664;BME280;8445;51.270;9.434;2023-04-03T13:01:13;100836.56;;;8.27;47.66
16664;BME280;8445;51.270;9.434;2023-04-03T13:03:45;100821.34;;;8.34;46.48
16664;BME280;8445;51.270;9.434;2023-04-03T13:06:17;100823.25;;;8.71;47.18
16664;BME280;8445;51.270;9.434;2023-04-03T13:08:57;100819.94;;;9.06;46.12
16664;BME280;8445;51.270;9.434;2023-04-03T13:11:27;100815.63;;;9.42;48.57
16664;BME280;8445;51.270;9.434;2023-04-03T13:14:13;100817.25;;;9.81;45.11
16664;BME280;8445;51.270;9.434;2023-04-03T13:17:13;100809.69;;;10.08;43.91
16664;BME280;8445;51.270;9.434;2023-04-03T13:19:38;100819.56;;;9.87;48.35
16664;BME280;8445;51.270;9.434;2023-04-03T13:24:49;100826.97;;;8.67;47.26
16664;BME280;8445;51.270;9.434;2023-04-03T13:27:16;100823.72;;;8.60;48.60
16664;BME280;8445;51.270;9.434;2023-04-03T13:29:43;100820.31;;;8.38;45.97
16664;BME280;8445;51.270;9.434;2023-04-03T13:32:19;100844.34;;;8.09;44.03
16664;BME280;8445;51.270;9.434;2023-04-03T13:34:46;100822.59;;;7.61;44.54
16664;BME280;8445;51.270;9.434;2023-04-03T13:37:32;100815.66;;;7.14;41.58
16664;BME280;8445;51.270;9.434;2023-04-03T13:40:11;100820.00;;;7.15;44.75
16664;BME280;8445;51.270;9.434;2023-04-03T13:42:41;100807.28;;;7.26;44.44
16664;BME280;8445;51.270;9.434;2023-04-03T13:47:50;100789.06;;;7.87;46.53
16664;BME280;8445;51.270;9.434;2023-04-03T13:50:22;100792.09;;;8.40;46.33
16664;BME280;8445;51.270;9.434;2023-04-03T13:53:08;100799.16;;;8.98;46.52
16664;BME280;8445;51.270;9.434;2023-04-03T13:55:50;100788.09;;;9.28;46.49
16664;BME280;8445;51.270;9.434;2023-04-03T13:58:25;100783.06;;;9.41;45.94
16664;BME280;8445;51.270;9.434;2023-04-03T14:01:00;100793.66;;;9.59;44.64
16664;BME280;8445;51.270;9.434;2023-04-03T14:03:34;100798.06;;;9.41;42.96
16664;BME280;8445;51.270;9.434;2023-04-03T14:06:07;100792.25;;;8.77;45.32
16664;BME280;8445;51.270;9.434;2023-04-03T14:08:34;100788.41;;;8.23;46.12
16664;BME280;8445;51.270;9.434;2023-04-03T14:11:02;100786.88;;;7.97;46.04
16664;BME280;8445;51.270;9.434;2023-04-03T14:13:31;100786.06;;;7.53;45.04
16664;BME280;8445;51.270;9.434;2023-04-03T14:16:00;100788.88;;;7.26;45.15
16664;BME280;8445;51.270;9.434;2023-04-03T14:18:29;100794.19;;;7.03;43.97
16664;BME280;8445;51.270;9.434;2023-04-03T14:21:02;100786.94;;;7.08;45.46
16664;BME280;8445;51.270;9.434;2023-04-03T14:23:34;100778.28;;;7.06;44.58
16664;BME280;8445;51.270;9.434;2023-04-03T14:26:02;100779.44;;;6.99;44.29
16664;BME280;8445;51.270;9.434;2023-04-03T14:28:29;100771.41;;;7.02;45.03
16664;BME280;8445;51.270;9.434;2023-04-03T14:30:54;100783.78;;;7.00;44.12
16664;BME280;8445;51.270;9.434;2023-04-03T14:33:21;100766.28;;;6.99;44.96
16664;BME280;8445;51.270;9.434;2023-04-03T14:35:48;100777.66;;;6.99;43.84
16664;BME280;8445;51.270;9.434;2023-04-03T14:38:26;100779.94;;;7.31;43.83
16664;BME280;8445;51.270;9.434;2023-04-03T14:40:53;100764.63;;;7.83;45.91
16664;BME280;8445;51.270;9.434;2023-04-03T14:43:19;100777.84;;;8.23;44.81
16664;BME280;8445;51.270;9.434;2023-04-03T14:45:46;100753.88;;;8.50;45.39